sensor_id;sensor_type;location;lat;lon;timestamp;temperature;humidity
20233;DHT22;37438;55.674;13.074;2023-08-20T00:01:27;20.30;99.90
20233;DHT22;37438;55.674;13.074;2023-08-20T00:04:35;20.40;99.90
20233;DHT22;37438;55.674;13.074;2023-08-20T00:07:40;20.40;99.90
20233;DHT22;37438;55.674;13.074;2023-08-20T00:10:45;20.40;99.90
20233;DHT22;37438;55.674;13.074;2023-08-20T00:13:50;20.40;99.90
20233;DHT22;37438;55.674;13.074;2023-08-20T00:16:55;20.40;99.90
20233;DHT22;37438;55.674;13.074;2023-08-20T00:20:00;20.30;99.90
20233;DHT22;37438;55.674;13.074;2023-08-20T00:23:04;20.30;99.90
20233;DHT22;37438;55.674;13.074;2023-08-20T00:26:09;20.30;99.90
20233;DHT22;37438;55.674;13.074;2023-08-20T00:29:15;20.30;99.90
20233;DHT22;37438;55.674;13.074;2023-08-20T00:32:19;20.30;99.90
20233;DHT22;37438;55.674;13.074;2023-08-20T00:35:24;20.20;99.90
20233;DHT22;37438;55.674;13.074;2023-08-20T00:38:29;20.20;99.90
20233;DHT22;37438;55.674;13.074;2023-08-20T00:41:34;20.30;99.90
20233;DHT22;37438;55.674;13.074;2023-08-20T00:44:38;20.20;99.90
20233;DHT22;37438;55.674;13.074;2023-08-20T00:47:45;20.20;99.90
20233;DHT22;37438;55.674;13.074;2023-08-20T00:50:51;20.30;99.90
20233;DHT22;37438;55.674;13.074;2023-08-20T00:53:55;20.30;99.90
20233;DHT22;37438;55.674;13.074;2023-08-20T00:57:01;20.20;99.90
20233;DHT22;37438;55.674;13.074;2023-08-20T01:00:07;20.30;99.90
20233;DHT22;37438;55.674;13.074;2023-08-20T01:03:15;20.30;99.90
20233;DHT22;37438;55.674;13.074;2023-08-20T01:06:33;20.30;99.90
20233;DHT22;37438;55.674;13.074;2023-08-20T01:09:56;20.30;99.90
20233;DHT22;37438;55.674;13.074;2023-08-20T01:13:02;20.40;99.90
20233;DHT22;37438;55.674;13.074;2023-08-20T01:16:07;20.30;99.90
20233;DHT22;37438;55.674;13.074;2023-08-20T01:19:18;20.30;99.90
20233;DHT22;37438;55.674;13.074;2023-08-20T01:29:17;20.40;99.90
20233;DHT22;37438;55.674;13.074;2023-08-20T01:32:22;20.40;99.90
20233;DHT22;37438;55.674;13.074;2023-08-20T01:35:27;20.40;99.90
20233;DHT22;37438;55.674;13.074;2023-08-20T01:38:48;20.30;99.90
20233;DHT22;37438;55.674;13.074;2023-08-20T01:41:53;20.30;99.90
20233;DHT22;37438;55.674;13.074;2023-08-20T01:44:57;20.30;99.90
20233;DHT22;37438;55.674;13.074;2023-08-20T01:48:02;20.40;99.90
20233;DHT22;37438;55.674;13.074;2023-08-20T01:51:08;20.40;99.90
20233;DHT22;37438;55.674;13.074;2023-08-20T01:54:14;20.40;99.90
20233;DHT22;37438;55.674;13.074;2023-08-20T01:57:18;20.40;99.90
20233;DHT22;37438;55.674;13.074;2023-08-20T02:00:23;20.40;99.90
20233;DHT22;37438;55.674;13.074;2023-08-20T02:03:27;20.40;99.90
20233;DHT22;37438;55.674;13.074;2023-08-20T02:06:32;20.40;99.90
20233;DHT22;37438;55.674;13.074;2023-08-20T02:09:37;20.60;99.90
20233;DHT22;37438;55.674;13.074;2023-08-20T02:12:42;20.40;99.90
20233;DHT22;37438;55.674;13.074;2023-08-20T02:15:46;20.50;99.90
20233;DHT22;37438;55.674;13.074;2023-08-20T02:18:51;20.50;99.90
20233;DHT22;37438;55.674;13.074;2023-08-20T02:21:55;20.40;99.90
20233;DHT22;37438;55.674;13.074;2023-08-20T02:25:00;20.50;99.90
20233;DHT22;37438;55.674;13.074;2023-08-20T02:28:05;20.50;99.90
20233;DHT22;37438;55.674;13.074;2023-08-20T02:31:09;20.30;99.90
20233;DHT22;37438;55.674;13.074;2023-08-20T02:34:15;20.20;99.90
20233;DHT22;37438;55.674;13.074;2023-08-20T02:37:20;20.20;99.90
20233;DHT22;37438;55.674;13.074;2023-08-20T02:40:25;20.30;99.90
20233;DHT22;37438;55.674;13.074;2023-08-20T02:43:29;20.20;99.90
20233;DHT22;37438;55.674;13.074;2023-08-20T02:46:37;20.20;99.90
20233;DHT22;37438;55.674;13.074;2023-08-20T02:49:42;20.10;99.90
20233;DHT22;37438;55.674;13.074;2023-08-20T02:52:48;20.10;99.90
20233;DHT22;37438;55.674;13.074;2023-08-20T02:55:52;20.10;99.90
20233;DHT22;37438;55.674;13.074;2023-08-20T02:58:57;20.10;99.90
20233;DHT22;37438;55.674;13.074;2023-08-20T03:02:02;20.00;99.90
20233;DHT22;37438;55.674;13.074;2023-08-20T03:05:10;19.80;99.90
20233;DHT22;37438;55.674;13.074;2023-08-20T03:08:15;19.80;99.90
20233;DHT22;37438;55.674;13.074;2023-08-20T03:11:19;19.70;99.90
20233;DHT22;37438;55.674;13.074;2023-08-20T03:14:23;19.70;99.90
20233;DHT22;37438;55.674;13.074;2023-08-20T03:17:31;19.70;99.90
20233;DHT22;37438;55.674;13.074;2023-08-20T03:20:36;19.60;99.90
20233;DHT22;37438;55.674;13.074;2023-08-20T03:23:41;19.50;99.90
20233;DHT22;37438;55.674;13.074;2023-08-20T03:26:45;19.50;99.90
20233;DHT22;37438;55.674;13.074;2023-08-20T03:29:52;19.50;99.90
20233;DHT22;37438;55.674;13.074;2023-08-20T03:32:57;19.40;99.90
20233;DHT22;37438;55.674;13.074;2023-08-20T03:36:02;19.50;99.90
20233;DHT22;37438;55.674;13.074;2023-08-20T03:39:06;19.50;99.90
20233;DHT22;37438;55.674;13.074;2023-08-20T03:42:11;19.50;99.90
20233;DHT22;37438;55.674;13.074;2023-08-20T03:45:15;19.40;99.90
20233;DHT22;37438;55.674;13.074;2023-08-20T03:48:20;19.40;99.90
20233;DHT22;37438;55.674;13.074;2023-08-20T03:51:25;19.40;99.90
20233;DHT22;37438;55.674;13.074;2023-08-20T03:54:30;19.30;99.90
20233;DHT22;37438;55.674;13.074;2023-08-20T03:57:35;19.30;99.90
20233;DHT22;37438;55.674;13.074;2023-08-20T04:00:41;19.20;99.90
20233;DHT22;37438;55.674;13.074;2023-08-20T04:03:47;19.40;99.90
20233;DHT22;37438;55.674;13.074;2023-08-20T04:06:52;19.20;99.90
20233;DHT22;37438;55.674;13.074;2023-08-20T04:09:56;19.30;99.90
20233;DHT22;37438;55.674;13.074;2023-08-20T04:13:01;19.20;99.90
20233;DHT22;37438;55.674;13.074;2023-08-20T04:16:05;19.40;99.90
20233;DHT22;37438;55.674;13.074;2023-08-20T04:19:10;19.30;99.90
20233;DHT22;37438;55.674;13.074;2023-08-20T04:22:15;19.40;99.90
20233;DHT22;37438;55.674;13.074;2023-08-20T04:25:19;19.40;99.90
20233;DHT22;37438;55.674;13.074;2023-08-20T04:28:24;19.40;99.90
20233;DHT22;37438;55.674;13.074;2023-08-20T04:31:29;19.50;99.90
20233;DHT22;37438;55.674;13.074;2023-08-20T04:34:42;19.40;99.90
20233;DHT22;37438;55.674;13.074;2023-08-20T04:37:46;19.30;99.90
20233;DHT22;37438;55.674;13.074;2023-08-20T04:40:52;19.50;99.90
20233;DHT22;37438;55.674;13.074;2023-08-20T04:43:56;19.50;99.90
20233;DHT22;37438;55.674;13.074;2023-08-20T04:47:01;19.40;99.90
20233;DHT22;37438;55.674;13.074;2023-08-20T04:50:09;19.50;99.90
20233;DHT22;37438;55.674;13.074;2023-08-20T04:53:14;19.50;99.90
20233;DHT22;37438;55.674;13.074;2023-08-20T04:56:20;19.40;99.90
20233;DHT22;37438;55.674;13.074;2023-08-20T04:59:25;19.40;99.90
20233;DHT22;37438;55.674;13.074;2023-08-20T05:02:30;19.60;99.90
20233;DHT22;37438;55.674;13.074;2023-08-20T05:05:38;19.60;99.90
20233;DHT22;37438;55.674;13.074;2023-08-20T05:08:43;19.70;99.90
20233;DHT22;37438;55.674;13.074;2023-08-20T05:11:47;19.70;99.90
20233;DHT22;37438;55.674;13.074;2023-08-20T05:14:51;19.70;99.90
20233;DHT22;37438;55.674;13.074;2023-08-20T05:17:57;19.70;99.90
20233;DHT22;37438;55.674;13.074;2023-08-20T05:21:01;19.80;99.90
20233;DHT22;37438;55.674;13.074;2023-08-20T05:24:06;19.90;99.90
20233;DHT22;37438;55.674;13.074;2023-08-20T05:27:13;19.80;99.90
20233;DHT22;37438;55.674;13.074;2023-08-20T05:30:25;20.00;99.90
20233;DHT22;37438;55.674;13.074;2023-08-20T05:33:32;20.00;99.90
20233;DHT22;37438;55.674;13.074;2023-08-20T05:36:38;19.90;99.90
20233;DHT22;37438;55.674;13.074;2023-08-20T05:39:46;20.00;99.90
20233;DHT22;37438;55.674;13.074;2023-08-20T05:42:52;20.10;99.90
20233;DHT22;37438;55.674;13.074;2023-08-20T05:45:57;20.10;99.90
20233;DHT22;37438;55.674;13.074;2023-08-20T05:49:03;20.10;99.90
20233;DHT22;37438;55.674;13.074;2023-08-20T05:52:11;20.00;99.90
20233;DHT22;37438;55.674;13.074;2023-08-20T05:55:16;20.30;99.90
20233;DHT22;37438;55.674;13.074;2023-08-20T05:58:23;20.10;99.90
20233;DHT22;37438;55.674;13.074;2023-08-20T06:01:28;20.10;99.90
20233;DHT22;37438;55.674;13.074;2023-08-20T06:04:33;20.30;99.90
20233;DHT22;37438;55.674;13.074;2023-08-20T06:07:38;20.40;99.90
20233;DHT22;37438;55.674;13.074;2023-08-20T06:10:42;20.50;99.90
20233;DHT22;37438;55.674;13.074;2023-08-20T06:13:47;20.30;99.90
20233;DHT22;37438;55.674;13.074;2023-08-20T06:16:51;20.50;99.90
20233;DHT22;37438;55.674;13.074;2023-08-20T06:19:58;20.40;99.90
20233;DHT22;37438;55.674;13.074;2023-08-20T06:23:02;20.40;99.90
20233;DHT22;37438;55.674;13.074;2023-08-20T06:26:07;20.40;99.90
20233;DHT22;37438;55.674;13.074;2023-08-20T06:29:12;20.50;99.90
20233;DHT22;37438;55.674;13.074;2023-08-20T06:32:16;20.80;99.90
20233;DHT22;37438;55.674;13.074;2023-08-20T06:35:21;20.60;99.90
20233;DHT22;37438;55.674;13.074;2023-08-20T06:38:25;20.80;99.90
20233;DHT22;37438;55.674;13.074;2023-08-20T06:41:29;20.60;99.90
20233;DHT22;37438;55.674;13.074;2023-08-20T06:44:33;20.70;99.90
20233;DHT22;37438;55.674;13.074;2023-08-20T06:47:39;20.60;99.90
20233;DHT22;37438;55.674;13.074;2023-08-20T06:50:43;20.90;99.90
20233;DHT22;37438;55.674;13.074;2023-08-20T06:53:49;20.90;99.90
20233;DHT22;37438;55.674;13.074;2023-08-20T06:56:53;21.00;99.90
20233;DHT22;37438;55.674;13.074;2023-08-20T06:59:57;21.00;99.90
20233;DHT22;37438;55.674;13.074;2023-08-20T07:03:02;21.30;99.90
20233;DHT22;37438;55.674;13.074;2023-08-20T07:06:09;21.30;99.90
20233;DHT22;37438;55.674;13.074;2023-08-20T07:09:13;21.20;99.90
20233;DHT22;37438;55.674;13.074;2023-08-20T07:12:18;21.30;99.90
20233;DHT22;37438;55.674;13.074;2023-08-20T07:15:23;21.20;99.90
20233;DHT22;37438;55.674;13.074;2023-08-20T07:18:27;21.10;99.90
20233;DHT22;37438;55.674;13.074;2023-08-20T07:21:32;21.20;99.90
20233;DHT22;37438;55.674;13.074;2023-08-20T07:24:37;21.30;99.90
20233;DHT22;37438;55.674;13.074;2023-08-20T07:27:41;21.50;99.90
20233;DHT22;37438;55.674;13.074;2023-08-20T07:30:47;21.60;99.90
20233;DHT22;37438;55.674;13.074;2023-08-20T07:33:53;21.50;99.90
20233;DHT22;37438;55.674;13.074;2023-08-20T07:36:59;21.70;99.90
20233;DHT22;37438;55.674;13.074;2023-08-20T07:40:03;21.60;99.90
20233;DHT22;37438;55.674;13.074;2023-08-20T07:43:08;21.80;99.90
20233;DHT22;37438;55.674;13.074;2023-08-20T07:46:13;22.00;99.90
20233;DHT22;37438;55.674;13.074;2023-08-20T07:49:18;22.10;99.90
20233;DHT22;37438;55.674;13.074;2023-08-20T07:52:22;22.10;99.90
20233;DHT22;37438;55.674;13.074;2023-08-20T07:55:27;22.20;99.90
20233;DHT22;37438;55.674;13.074;2023-08-20T07:58:31;22.40;99.90
20233;DHT22;37438;55.674;13.074;2023-08-20T08:01:36;22.40;99.90
20233;DHT22;37438;55.674;13.074;2023-08-20T08:04:42;22.30;99.90
20233;DHT22;37438;55.674;13.074;2023-08-20T08:07:49;22.50;99.90
20233;DHT22;37438;55.674;13.074;2023-08-20T08:10:54;22.60;99.90
20233;DHT22;37438;55.674;13.074;2023-08-20T08:13:59;22.60;99.90
20233;DHT22;37438;55.674;13.074;2023-08-20T08:17:03;22.40;99.90
20233;DHT22;37438;55.674;13.074;2023-08-20T08:20:08;22.40;99.90
20233;DHT22;37438;55.674;13.074;2023-08-20T08:23:12;22.60;99.90
20233;DHT22;37438;55.674;13.074;2023-08-20T08:26:17;22.50;99.90
20233;DHT22;37438;55.674;13.074;2023-08-20T08:29:22;22.50;99.90
20233;DHT22;37438;55.674;13.074;2023-08-20T08:32:26;22.60;99.90
20233;DHT22;37438;55.674;13.074;2023-08-20T08:35:30;22.20;99.90
20233;DHT22;37438;55.674;13.074;2023-08-20T08:38:35;22.30;99.90
20233;DHT22;37438;55.674;13.074;2023-08-20T08:41:41;22.20;99.90
20233;DHT22;37438;55.674;13.074;2023-08-20T08:44:46;22.30;99.90
20233;DHT22;37438;55.674;13.074;2023-08-20T08:47:54;22.20;99.90
20233;DHT22;37438;55.674;13.074;2023-08-20T08:50:59;22.00;99.90
20233;DHT22;37438;55.674;13.074;2023-08-20T08:54:05;22.10;99.90
20233;DHT22;37438;55.674;13.074;2023-08-20T08:57:09;22.20;99.90
20233;DHT22;37438;55.674;13.074;2023-08-20T09:00:14;22.20;99.90
20233;DHT22;37438;55.674;13.074;2023-08-20T09:03:19;22.20;99.90
20233;DHT22;37438;55.674;13.074;2023-08-20T09:06:24;22.20;99.90
20233;DHT22;37438;55.674;13.074;2023-08-20T09:09:29;22.20;99.90
20233;DHT22;37438;55.674;13.074;2023-08-20T09:12:34;22.10;99.90
20233;DHT22;37438;55.674;13.074;2023-08-20T09:15:39;22.00;99.90
20233;DHT22;37438;55.674;13.074;2023-08-20T09:18:45;22.10;99.90
20233;DHT22;37438;55.674;13.074;2023-08-20T09:21:49;22.00;99.90
20233;DHT22;37438;55.674;13.074;2023-08-20T09:24:57;22.00;99.90
20233;DHT22;37438;55.674;13.074;2023-08-20T09:28:03;22.10;99.90
20233;DHT22;37438;55.674;13.074;2023-08-20T09:31:09;22.20;99.90
20233;DHT22;37438;55.674;13.074;2023-08-20T09:34:15;22.10;99.90
20233;DHT22;37438;55.674;13.074;2023-08-20T09:37:21;22.20;99.90
20233;DHT22;37438;55.674;13.074;2023-08-20T09:40:27;22.20;99.90
20233;DHT22;37438;55.674;13.074;2023-08-20T09:43:33;22.10;99.90
20233;DHT22;37438;55.674;13.074;2023-08-20T09:46:42;22.40;99.90
20233;DHT22;37438;55.674;13.074;2023-08-20T09:49:48;22.40;99.90
20233;DHT22;37438;55.674;13.074;2023-08-20T09:53:03;22.50;99.90
20233;DHT22;37438;55.674;13.074;2023-08-20T09:56:20;22.40;99.90
20233;DHT22;37438;55.674;13.074;2023-08-20T09:59:26;22.40;99.90
20233;DHT22;37438;55.674;13.074;2023-08-20T10:02:31;22.60;99.90
20233;DHT22;37438;55.674;13.074;2023-08-20T10:05:35;22.80;99.90
20233;DHT22;37438;55.674;13.074;2023-08-20T10:08:40;23.00;99.90
20233;DHT22;37438;55.674;13.074;2023-08-20T10:11:45;22.90;99.90
20233;DHT22;37438;55.674;13.074;2023-08-20T10:14:51;22.70;99.90
20233;DHT22;37438;55.674;13.074;2023-08-20T10:17:57;22.90;99.90
20233;DHT22;37438;55.674;13.074;2023-08-20T10:21:01;22.80;99.90
20233;DHT22;37438;55.674;13.074;2023-08-20T10:24:07;22.90;99.90
20233;DHT22;37438;55.674;13.074;2023-08-20T10:27:12;23.00;99.90
20233;DHT22;37438;55.674;13.074;2023-08-20T10:30:18;23.20;99.90
20233;DHT22;37438;55.674;13.074;2023-08-20T10:33:24;23.40;99.90
20233;DHT22;37438;55.674;13.074;2023-08-20T10:36:29;23.50;99.90
20233;DHT22;37438;55.674;13.074;2023-08-20T10:39:33;23.70;99.90
20233;DHT22;37438;55.674;13.074;2023-08-20T10:42:41;24.10;99.90
20233;DHT22;37438;55.674;13.074;2023-08-20T10:46:23;24.20;99.90
20233;DHT22;37438;55.674;13.074;2023-08-20T10:49:27;24.30;99.90
20233;DHT22;37438;55.674;13.074;2023-08-20T10:52:32;24.80;99.90
20233;DHT22;37438;55.674;13.074;2023-08-20T10:55:37;25.10;99.90
20233;DHT22;37438;55.674;13.074;2023-08-20T10:58:46;25.10;99.90
20233;DHT22;37438;55.674;13.074;2023-08-20T11:01:55;25.20;99.90
20233;DHT22;37438;55.674;13.074;2023-08-20T11:05:00;24.90;99.90
20233;DHT22;37438;55.674;13.074;2023-08-20T11:08:05;25.60;99.90
20233;DHT22;37438;55.674;13.074;2023-08-20T11:11:12;25.60;99.90
20233;DHT22;37438;55.674;13.074;2023-08-20T11:14:19;25.50;99.90
20233;DHT22;37438;55.674;13.074;2023-08-20T11:17:24;25.50;99.90
20233;DHT22;37438;55.674;13.074;2023-08-20T11:20:30;25.80;99.90
20233;DHT22;37438;55.674;13.074;2023-08-20T11:23:35;26.20;99.90
20233;DHT22;37438;55.674;13.074;2023-08-20T11:26:41;27.70;99.90
20233;DHT22;37438;55.674;13.074;2023-08-20T11:29:46;27.70;99.90
20233;DHT22;37438;55.674;13.074;2023-08-20T11:32:53;26.50;99.90
20233;DHT22;37438;55.674;13.074;2023-08-20T11:35:57;27.00;99.90
20233;DHT22;37438;55.674;13.074;2023-08-20T11:39:02;27.70;99.90
20233;DHT22;37438;55.674;13.074;2023-08-20T11:42:07;26.80;99.90
20233;DHT22;37438;55.674;13.074;2023-08-20T11:45:12;27.40;99.90
20233;DHT22;37438;55.674;13.074;2023-08-20T11:48:17;27.10;99.90
20233;DHT22;37438;55.674;13.074;2023-08-20T11:51:21;29.10;99.90
20233;DHT22;37438;55.674;13.074;2023-08-20T11:54:26;29.40;99.90
20233;DHT22;37438;55.674;13.074;2023-08-20T11:57:30;29.80;99.90
20233;DHT22;37438;55.674;13.074;2023-08-20T12:00:35;31.60;99.90
20233;DHT22;37438;55.674;13.074;2023-08-20T12:03:43;31.10;99.90
20233;DHT22;37438;55.674;13.074;2023-08-20T12:07:05;30.10;99.90
20233;DHT22;37438;55.674;13.074;2023-08-20T12:10:19;29.30;1.00
20233;DHT22;37438;55.674;13.074;2023-08-20T12:13:25;30.40;1.00
20233;DHT22;37438;55.674;13.074;2023-08-20T12:16:30;31.40;99.90
20233;DHT22;37438;55.674;13.074;2023-08-20T12:19:35;29.80;99.90
20233;DHT22;37438;55.674;13.074;2023-08-20T12:22:39;28.40;99.90
20233;DHT22;37438;55.674;13.074;2023-08-20T12:25:50;27.90;99.90
20233;DHT22;37438;55.674;13.074;2023-08-20T12:28:55;27.30;1.00
20233;DHT22;37438;55.674;13.074;2023-08-20T12:31:59;28.40;99.90
20233;DHT22;37438;55.674;13.074;2023-08-20T12:35:05;29.00;99.90
20233;DHT22;37438;55.674;13.074;2023-08-20T12:38:10;29.00;99.90
20233;DHT22;37438;55.674;13.074;2023-08-20T12:41:15;27.10;99.90
20233;DHT22;37438;55.674;13.074;2023-08-20T12:44:20;26.70;5.60
20233;DHT22;37438;55.674;13.074;2023-08-20T12:47:24;27.00;1.00
20233;DHT22;37438;55.674;13.074;2023-08-20T12:50:29;27.30;1.00
20233;DHT22;37438;55.674;13.074;2023-08-20T12:53:34;28.00;99.90
20233;DHT22;37438;55.674;13.074;2023-08-20T12:56:41;28.60;99.90
20233;DHT22;37438;55.674;13.074;2023-08-20T12:59:45;28.40;99.90
20233;DHT22;37438;55.674;13.074;2023-08-20T13:02:50;26.60;99.90
20233;DHT22;37438;55.674;13.074;2023-08-20T13:05:55;26.00;1.00
20233;DHT22;37438;55.674;13.074;2023-08-20T13:09:03;26.70;99.90
20233;DHT22;37438;55.674;13.074;2023-08-20T13:12:09;26.80;99.90
20233;DHT22;37438;55.674;13.074;2023-08-20T13:15:17;27.00;99.90
20233;DHT22;37438;55.674;13.074;2023-08-20T13:18:22;26.60;99.90
20233;DHT22;37438;55.674;13.074;2023-08-20T13:21:29;26.20;99.90
20233;DHT22;37438;55.674;13.074;2023-08-20T13:24:34;26.40;99.90
20233;DHT22;37438;55.674;13.074;2023-08-20T13:27:38;26.50;99.90
20233;DHT22;37438;55.674;13.074;2023-08-20T13:30:43;27.10;99.90
20233;DHT22;37438;55.674;13.074;2023-08-20T13:33:47;27.10;99.90
20233;DHT22;37438;55.674;13.074;2023-08-20T13:36:54;27.00;99.90
20233;DHT22;37438;55.674;13.074;2023-08-20T13:39:59;28.80;99.90
20233;DHT22;37438;55.674;13.074;2023-08-20T13:43:03;28.90;99.90
20233;DHT22;37438;55.674;13.074;2023-08-20T13:46:07;28.00;99.90
20233;DHT22;37438;55.674;13.074;2023-08-20T13:49:12;26.90;99.90
20233;DHT22;37438;55.674;13.074;2023-08-20T13:52:17;27.30;99.90
20233;DHT22;37438;55.674;13.074;2023-08-20T13:55:21;26.90;99.90
20233;DHT22;37438;55.674;13.074;2023-08-20T13:58:26;26.50;99.90
20233;DHT22;37438;55.674;13.074;2023-08-20T14:01:31;26.70;99.90
20233;DHT22;37438;55.674;13.074;2023-08-20T14:04:35;26.80;99.90
20233;DHT22;37438;55.674;13.074;2023-08-20T14:07:41;27.10;99.90
20233;DHT22;37438;55.674;13.074;2023-08-20T14:10:45;28.30;99.90
20233;DHT22;37438;55.674;13.074;2023-08-20T14:13:50;27.70;99.90
20233;DHT22;37438;55.674;13.074;2023-08-20T14:16:54;29.50;99.90
20233;DHT22;37438;55.674;13.074;2023-08-20T14:19:58;29.00;99.90
20233;DHT22;37438;55.674;13.074;2023-08-20T14:23:03;29.40;87.90
20233;DHT22;37438;55.674;13.074;2023-08-20T14:26:07;28.50;68.80
20233;DHT22;37438;55.674;13.074;2023-08-20T14:29:12;28.50;79.80
20233;DHT22;37438;55.674;13.074;2023-08-20T14:32:16;27.90;94.90
20233;DHT22;37438;55.674;13.074;2023-08-20T14:35:21;28.00;74.80
20233;DHT22;37438;55.674;13.074;2023-08-20T14:38:27;28.20;77.20
20233;DHT22;37438;55.674;13.074;2023-08-20T14:41:32;28.40;63.20
20233;DHT22;37438;55.674;13.074;2023-08-20T14:44:36;28.70;51.80
20233;DHT22;37438;55.674;13.074;2023-08-20T14:47:41;29.00;52.70
20233;DHT22;37438;55.674;13.074;2023-08-20T14:50:45;29.60;22.80
20233;DHT22;37438;55.674;13.074;2023-08-20T14:53:50;30.30;1.00
20233;DHT22;37438;55.674;13.074;2023-08-20T14:56:54;30.20;1.00
20233;DHT22;37438;55.674;13.074;2023-08-20T14:59:59;31.80;1.00
20233;DHT22;37438;55.674;13.074;2023-08-20T15:03:04;31.90;99.90
20233;DHT22;37438;55.674;13.074;2023-08-20T15:06:10;32.80;99.90
20233;DHT22;37438;55.674;13.074;2023-08-20T15:09:15;33.10;99.90
20233;DHT22;37438;55.674;13.074;2023-08-20T15:12:20;32.60;99.90
20233;DHT22;37438;55.674;13.074;2023-08-20T15:15:24;32.80;99.90
20233;DHT22;37438;55.674;13.074;2023-08-20T15:18:33;32.10;99.90
20233;DHT22;37438;55.674;13.074;2023-08-20T15:21:38;32.40;99.90
20233;DHT22;37438;55.674;13.074;2023-08-20T15:24:43;33.30;99.90
20233;DHT22;37438;55.674;13.074;2023-08-20T15:27:47;33.50;99.90
20233;DHT22;37438;55.674;13.074;2023-08-20T15:30:53;33.30;99.90
20233;DHT22;37438;55.674;13.074;2023-08-20T15:33:58;33.90;99.90
20233;DHT22;37438;55.674;13.074;2023-08-20T15:37:03;35.00;99.90
20233;DHT22;37438;55.674;13.074;2023-08-20T15:40:08;33.40;99.90
20233;DHT22;37438;55.674;13.074;2023-08-20T15:43:16;33.90;99.90
20233;DHT22;37438;55.674;13.074;2023-08-20T15:46:21;33.30;99.90
20233;DHT22;37438;55.674;13.074;2023-08-20T15:49:27;34.00;99.90
20233;DHT22;37438;55.674;13.074;2023-08-20T15:52:32;33.60;99.90
20233;DHT22;37438;55.674;13.074;2023-08-20T15:55:36;30.60;99.90
20233;DHT22;37438;55.674;13.074;2023-08-20T15:58:41;29.90;99.90
20233;DHT22;37438;55.674;13.074;2023-08-20T16:01:45;31.70;99.90
20233;DHT22;37438;55.674;13.074;2023-08-20T16:04:51;32.00;99.90
20233;DHT22;37438;55.674;13.074;2023-08-20T16:07:57;31.90;99.90
20233;DHT22;37438;55.674;13.074;2023-08-20T16:11:02;31.50;99.90
20233;DHT22;37438;55.674;13.074;2023-08-20T16:14:09;32.70;99.90
20233;DHT22;37438;55.674;13.074;2023-08-20T16:17:14;32.30;99.90
20233;DHT22;37438;55.674;13.074;2023-08-20T16:20:19;34.50;99.90
20233;DHT22;37438;55.674;13.074;2023-08-20T16:23:24;35.20;99.90
20233;DHT22;37438;55.674;13.074;2023-08-20T16:26:29;35.90;99.90
20233;DHT22;37438;55.674;13.074;2023-08-20T16:29:34;33.80;99.90
20233;DHT22;37438;55.674;13.074;2023-08-20T16:32:38;34.40;99.90
20233;DHT22;37438;55.674;13.074;2023-08-20T16:35:46;34.90;99.90
20233;DHT22;37438;55.674;13.074;2023-08-20T16:38:51;30.60;99.90
20233;DHT22;37438;55.674;13.074;2023-08-20T16:41:55;29.40;99.90
20233;DHT22;37438;55.674;13.074;2023-08-20T16:45:00;27.90;99.90
20233;DHT22;37438;55.674;13.074;2023-08-20T16:48:04;28.30;99.90
20233;DHT22;37438;55.674;13.074;2023-08-20T16:51:09;29.00;99.90
20233;DHT22;37438;55.674;13.074;2023-08-20T16:54:14;28.10;99.90
20233;DHT22;37438;55.674;13.074;2023-08-20T16:57:18;28.90;99.90
20233;DHT22;37438;55.674;13.074;2023-08-20T17:00:23;27.20;99.90
20233;DHT22;37438;55.674;13.074;2023-08-20T17:03:28;27.50;1.00
20233;DHT22;37438;55.674;13.074;2023-08-20T17:06:32;27.40;1.00
20233;DHT22;37438;55.674;13.074;2023-08-20T17:09:37;28.10;1.00
20233;DHT22;37438;55.674;13.074;2023-08-20T17:12:42;26.60;1.00
20233;DHT22;37438;55.674;13.074;2023-08-20T17:15:49;26.30;1.00
20233;DHT22;37438;55.674;13.074;2023-08-20T17:18:55;23.70;99.90
20233;DHT22;37438;55.674;13.074;2023-08-20T17:22:00;22.50;75.10
20233;DHT22;37438;55.674;13.074;2023-08-20T17:25:06;22.20;99.90
20233;DHT22;37438;55.674;13.074;2023-08-20T17:28:10;22.00;23.60
20233;DHT22;37438;55.674;13.074;2023-08-20T17:31:16;21.90;99.90
20233;DHT22;37438;55.674;13.074;2023-08-20T17:34:20;21.70;44.80
20233;DHT22;37438;55.674;13.074;2023-08-20T17:37:24;21.60;99.90
20233;DHT22;37438;55.674;13.074;2023-08-20T17:40:29;21.40;99.90
20233;DHT22;37438;55.674;13.074;2023-08-20T17:43:34;21.40;99.90
20233;DHT22;37438;55.674;13.074;2023-08-20T17:46:49;21.30;1.00
20233;DHT22;37438;55.674;13.074;2023-08-20T17:49:54;21.30;99.90
20233;DHT22;37438;55.674;13.074;2023-08-20T17:52:58;21.30;99.90
20233;DHT22;37438;55.674;13.074;2023-08-20T17:56:06;21.30;99.90
20233;DHT22;37438;55.674;13.074;2023-08-20T17:59:11;21.20;99.90
20233;DHT22;37438;55.674;13.074;2023-08-20T18:02:15;21.10;99.90
20233;DHT22;37438;55.674;13.074;2023-08-20T18:05:20;21.00;99.90
20233;DHT22;37438;55.674;13.074;2023-08-20T18:08:24;20.80;99.90
20233;DHT22;37438;55.674;13.074;2023-08-20T18:11:29;20.70;1.00
20233;DHT22;37438;55.674;13.074;2023-08-20T18:14:33;20.70;99.90
20233;DHT22;37438;55.674;13.074;2023-08-20T18:17:38;20.70;99.90
20233;DHT22;37438;55.674;13.074;2023-08-20T18:20:43;20.70;99.90
20233;DHT22;37438;55.674;13.074;2023-08-20T18:23:47;20.60;99.90
20233;DHT22;37438;55.674;13.074;2023-08-20T18:26:52;20.50;7.50
20233;DHT22;37438;55.674;13.074;2023-08-20T18:29:56;20.50;99.90
20233;DHT22;37438;55.674;13.074;2023-08-20T18:33:01;20.40;99.90
20233;DHT22;37438;55.674;13.074;2023-08-20T18:36:06;20.30;99.90
20233;DHT22;37438;55.674;13.074;2023-08-20T18:39:10;20.30;99.90
20233;DHT22;37438;55.674;13.074;2023-08-20T18:42:18;20.20;99.90
20233;DHT22;37438;55.674;13.074;2023-08-20T18:45:22;20.20;99.90
20233;DHT22;37438;55.674;13.074;2023-08-20T18:48:27;20.00;99.90
20233;DHT22;37438;55.674;13.074;2023-08-20T18:51:32;20.00;99.90
20233;DHT22;37438;55.674;13.074;2023-08-20T18:54:36;20.10;99.90
20233;DHT22;37438;55.674;13.074;2023-08-20T18:57:40;20.00;99.90
20233;DHT22;37438;55.674;13.074;2023-08-20T19:00:45;19.90;99.90
20233;DHT22;37438;55.674;13.074;2023-08-20T19:03:49;20.00;99.90
20233;DHT22;37438;55.674;13.074;2023-08-20T19:06:55;20.00;99.90
20233;DHT22;37438;55.674;13.074;2023-08-20T19:09:59;20.10;99.90
20233;DHT22;37438;55.674;13.074;2023-08-20T19:13:04;20.00;99.90
20233;DHT22;37438;55.674;13.074;2023-08-20T19:16:08;20.10;99.90
20233;DHT22;37438;55.674;13.074;2023-08-20T19:19:13;20.10;99.90
20233;DHT22;37438;55.674;13.074;2023-08-20T19:22:17;20.10;99.90